sensor_id;sensor_type;location;lat;lon;timestamp;P1;durP1;ratioP1;P2;durP2;ratioP2
36241;SDS011;22283;42.748;12.732;2024-03-29T00:04:02;32.87;;;6.77;;
36241;SDS011;22283;42.748;12.732;2024-03-29T00:09:02;32.60;;;5.77;;
36241;SDS011;22283;42.748;12.732;2024-03-29T00:14:03;28.03;;;5.73;;
36241;SDS011;22283;42.748;12.732;2024-03-29T00:19:03;42.30;;;6.13;;
36241;SDS011;22283;42.748;12.732;2024-03-29T00:24:05;32.70;;;6.70;;
36241;SDS011;22283;42.748;12.732;2024-03-29T00:29:05;28.03;;;5.10;;
36241;SDS011;22283;42.748;12.732;2024-03-29T00:34:06;29.03;;;5.80;;
36241;SDS011;22283;42.748;12.732;2024-03-29T00:39:06;27.27;;;4.90;;
36241;SDS011;22283;42.748;12.732;2024-03-29T00:44:11;33.60;;;6.47;;
36241;SDS011;22283;42.748;12.732;2024-03-29T00:49:11;28.50;;;6.30;;
36241;SDS011;22283;42.748;12.732;2024-03-29T00:54:12;28.73;;;4.37;;
36241;SDS011;22283;42.748;12.732;2024-03-29T00:59:13;28.37;;;5.13;;
36241;SDS011;22283;42.748;12.732;2024-03-29T01:04:13;28.15;;;5.00;;
36241;SDS011;22283;42.748;12.732;2024-03-29T01:09:14;23.83;;;4.50;;
36241;SDS011;22283;42.748;12.732;2024-03-29T01:14:14;31.63;;;5.33;;
36241;SDS011;22283;42.748;12.732;2024-03-29T01:19:15;24.00;;;4.43;;
36241;SDS011;22283;42.748;12.732;2024-03-29T01:24:15;27.50;;;4.83;;
36241;SDS011;22283;42.748;12.732;2024-03-29T01:29:16;29.23;;;5.67;;
36241;SDS011;22283;42.748;12.732;2024-03-29T01:34:16;25.87;;;5.07;;
36241;SDS011;22283;42.748;12.732;2024-03-29T01:39:17;26.03;;;4.10;;
36241;SDS011;22283;42.748;12.732;2024-03-29T01:44:21;33.90;;;5.07;;
36241;SDS011;22283;42.748;12.732;2024-03-29T01:49:21;36.70;;;5.07;;
36241;SDS011;22283;42.748;12.732;2024-03-29T01:54:22;24.35;;;5.30;;
36241;SDS011;22283;42.748;12.732;2024-03-29T01:59:23;22.83;;;4.00;;
36241;SDS011;22283;42.748;12.732;2024-03-29T02:04:25;29.92;;;4.28;;
36241;SDS011;22283;42.748;12.732;2024-03-29T02:14:26;19.92;;;3.90;;
36241;SDS011;22283;42.748;12.732;2024-03-29T02:19:27;13.60;;;3.57;;
36241;SDS011;22283;42.748;12.732;2024-03-29T02:24:28;23.13;;;4.10;;
36241;SDS011;22283;42.748;12.732;2024-03-29T02:29:29;21.80;;;4.00;;
36241;SDS011;22283;42.748;12.732;2024-03-29T02:34:30;25.25;;;4.18;;
36241;SDS011;22283;42.748;12.732;2024-03-29T02:39:31;33.33;;;4.13;;
36241;SDS011;22283;42.748;12.732;2024-03-29T02:44:31;23.30;;;4.17;;
36241;SDS011;22283;42.748;12.732;2024-03-29T02:49:32;21.33;;;3.37;;
36241;SDS011;22283;42.748;12.732;2024-03-29T02:54:32;23.83;;;3.87;;
36241;SDS011;22283;42.748;12.732;2024-03-29T02:59:33;25.90;;;4.13;;
36241;SDS011;22283;42.748;12.732;2024-03-29T03:04:34;14.93;;;3.73;;
36241;SDS011;22283;42.748;12.732;2024-03-29T03:09:37;28.33;;;4.87;;
36241;SDS011;22283;42.748;12.732;2024-03-29T03:14:57;14.97;;;3.73;;
36241;SDS011;22283;42.748;12.732;2024-03-29T03:19:57;18.52;;;3.15;;
36241;SDS011;22283;42.748;12.732;2024-03-29T03:24:58;25.73;;;4.30;;
36241;SDS011;22283;42.748;12.732;2024-03-29T03:29:59;16.97;;;3.80;;
36241;SDS011;22283;42.748;12.732;2024-03-29T03:34:59;19.73;;;3.37;;
36241;SDS011;22283;42.748;12.732;2024-03-29T03:40:00;22.97;;;3.53;;
36241;SDS011;22283;42.748;12.732;2024-03-29T03:45:00;26.90;;;3.73;;
36241;SDS011;22283;42.748;12.732;2024-03-29T03:50:01;15.47;;;2.77;;
36241;SDS011;22283;42.748;12.732;2024-03-29T03:55:01;15.83;;;2.87;;
36241;SDS011;22283;42.748;12.732;2024-03-29T04:00:02;17.37;;;3.50;;
36241;SDS011;22283;42.748;12.732;2024-03-29T04:05:12;19.80;;;3.70;;
36241;SDS011;22283;42.748;12.732;2024-03-29T04:10:13;21.33;;;4.30;;
36241;SDS011;22283;42.748;12.732;2024-03-29T04:15:13;18.67;;;3.00;;
36241;SDS011;22283;42.748;12.732;2024-03-29T04:20:14;18.70;;;3.17;;
36241;SDS011;22283;42.748;12.732;2024-03-29T04:25:14;18.10;;;3.67;;
36241;SDS011;22283;42.748;12.732;2024-03-29T04:30:15;18.40;;;3.30;;
36241;SDS011;22283;42.748;12.732;2024-03-29T04:35:15;20.67;;;3.17;;
36241;SDS011;22283;42.748;12.732;2024-03-29T04:40:16;15.77;;;2.87;;
36241;SDS011;22283;42.748;12.732;2024-03-29T04:45:16;14.93;;;3.47;;
36241;SDS011;22283;42.748;12.732;2024-03-29T04:50:17;20.87;;;3.80;;
36241;SDS011;22283;42.748;12.732;2024-03-29T04:55:17;13.63;;;2.83;;
36241;SDS011;22283;42.748;12.732;2024-03-29T05:00:18;20.07;;;3.57;;
36241;SDS011;22283;42.748;12.732;2024-03-29T05:05:19;27.53;;;3.93;;
36241;SDS011;22283;42.748;12.732;2024-03-29T05:10:19;33.30;;;4.83;;
36241;SDS011;22283;42.748;12.732;2024-03-29T05:15:22;19.85;;;4.05;;
36241;SDS011;22283;42.748;12.732;2024-03-29T05:20:23;23.43;;;5.43;;
36241;SDS011;22283;42.748;12.732;2024-03-29T05:25:24;23.63;;;3.40;;
36241;SDS011;22283;42.748;12.732;2024-03-29T05:30:25;19.30;;;3.13;;
36241;SDS011;22283;42.748;12.732;2024-03-29T05:35:27;21.13;;;3.33;;
36241;SDS011;22283;42.748;12.732;2024-03-29T05:40:27;20.33;;;2.90;;
36241;SDS011;22283;42.748;12.732;2024-03-29T05:45:29;22.67;;;4.00;;
36241;SDS011;22283;42.748;12.732;2024-03-29T05:50:30;22.27;;;3.28;;
36241;SDS011;22283;42.748;12.732;2024-03-29T05:55:35;20.08;;;3.17;;
36241;SDS011;22283;42.748;12.732;2024-03-29T06:00:36;20.97;;;4.37;;
36241;SDS011;22283;42.748;12.732;2024-03-29T06:05:36;18.57;;;3.37;;
36241;SDS011;22283;42.748;12.732;2024-03-29T06:10:37;18.30;;;3.40;;
36241;SDS011;22283;42.748;12.732;2024-03-29T06:15:37;15.27;;;4.00;;
36241;SDS011;22283;42.748;12.732;2024-03-29T06:20:56;16.70;;;2.78;;
36241;SDS011;22283;42.748;12.732;2024-03-29T06:25:57;15.93;;;2.73;;
36241;SDS011;22283;42.748;12.732;2024-03-29T06:30:57;16.03;;;3.00;;
36241;SDS011;22283;42.748;12.732;2024-03-29T06:36:00;19.08;;;4.13;;
36241;SDS011;22283;42.748;12.732;2024-03-29T06:41:01;23.10;;;3.60;;
36241;SDS011;22283;42.748;12.732;2024-03-29T06:46:01;20.07;;;4.00;;
36241;SDS011;22283;42.748;12.732;2024-03-29T06:51:03;28.60;;;3.55;;
36241;SDS011;22283;42.748;12.732;2024-03-29T06:56:04;20.92;;;4.15;;
36241;SDS011;22283;42.748;12.732;2024-03-29T07:01:05;16.67;;;3.03;;
36241;SDS011;22283;42.748;12.732;2024-03-29T07:06:05;27.17;;;3.37;;
36241;SDS011;22283;42.748;12.732;2024-03-29T07:11:06;17.50;;;2.55;;
36241;SDS011;22283;42.748;12.732;2024-03-29T07:16:07;31.87;;;3.23;;
36241;SDS011;22283;42.748;12.732;2024-03-29T07:21:09;19.17;;;2.75;;
36241;SDS011;22283;42.748;12.732;2024-03-29T07:26:09;21.50;;;3.50;;
36241;SDS011;22283;42.748;12.732;2024-03-29T07:31:11;21.38;;;3.78;;
36241;SDS011;22283;42.748;12.732;2024-03-29T07:36:12;21.37;;;3.47;;
36241;SDS011;22283;42.748;12.732;2024-03-29T07:41:13;32.85;;;4.20;;
36241;SDS011;22283;42.748;12.732;2024-03-29T07:46:13;14.80;;;3.07;;
36241;SDS011;22283;42.748;12.732;2024-03-29T07:51:14;15.70;;;2.10;;
36241;SDS011;22283;42.748;12.732;2024-03-29T07:56:17;22.58;;;3.53;;
36241;SDS011;22283;42.748;12.732;2024-03-29T08:01:21;15.93;;;3.30;;
36241;SDS011;22283;42.748;12.732;2024-03-29T08:06:22;27.35;;;3.97;;
36241;SDS011;22283;42.748;12.732;2024-03-29T08:11:26;17.98;;;3.22;;
36241;SDS011;22283;42.748;12.732;2024-03-29T08:16:26;18.27;;;2.93;;
36241;SDS011;22283;42.748;12.732;2024-03-29T08:21:27;20.00;;;3.10;;
36241;SDS011;22283;42.748;12.732;2024-03-29T08:26:27;27.30;;;3.17;;
36241;SDS011;22283;42.748;12.732;2024-03-29T08:31:31;15.25;;;2.35;;
36241;SDS011;22283;42.748;12.732;2024-03-29T08:36:31;18.15;;;3.30;;
36241;SDS011;22283;42.748;12.732;2024-03-29T08:41:32;17.83;;;4.15;;
36241;SDS011;22283;42.748;12.732;2024-03-29T08:46:33;17.90;;;3.03;;
36241;SDS011;22283;42.748;12.732;2024-03-29T08:51:33;21.13;;;3.03;;
36241;SDS011;22283;42.748;12.732;2024-03-29T08:56:35;21.58;;;3.95;;
36241;SDS011;22283;42.748;12.732;2024-03-29T09:01:39;27.92;;;3.78;;
36241;SDS011;22283;42.748;12.732;2024-03-29T09:06:44;31.80;;;8.85;;
36241;SDS011;22283;42.748;12.732;2024-03-29T09:16:45;16.17;;;2.83;;
36241;SDS011;22283;42.748;12.732;2024-03-29T09:21:47;27.88;;;2.88;;
36241;SDS011;22283;42.748;12.732;2024-03-29T09:31:49;16.98;;;2.50;;
36241;SDS011;22283;42.748;12.732;2024-03-29T09:36:49;20.50;;;3.80;;
36241;SDS011;22283;42.748;12.732;2024-03-29T09:41:50;16.90;;;3.30;;
36241;SDS011;22283;42.748;12.732;2024-03-29T09:46:51;16.00;;;2.83;;
36241;SDS011;22283;42.748;12.732;2024-03-29T09:51:54;25.10;;;4.22;;
36241;SDS011;22283;42.748;12.732;2024-03-29T09:56:56;20.55;;;3.35;;
36241;SDS011;22283;42.748;12.732;2024-03-29T10:01:57;19.25;;;3.92;;
36241;SDS011;22283;42.748;12.732;2024-03-29T10:06:59;27.75;;;4.28;;
36241;SDS011;22283;42.748;12.732;2024-03-29T10:17:00;19.00;;;3.70;;
36241;SDS011;22283;42.748;12.732;2024-03-29T10:27:08;24.17;;;3.88;;
36241;SDS011;22283;42.748;12.732;2024-03-29T10:37:09;24.42;;;3.92;;
36241;SDS011;22283;42.748;12.732;2024-03-29T10:42:10;37.28;;;5.57;;
36241;SDS011;22283;42.748;12.732;2024-03-29T10:47:11;38.15;;;4.45;;
36241;SDS011;22283;42.748;12.732;2024-03-29T10:52:18;26.50;;;4.28;;
36241;SDS011;22283;42.748;12.732;2024-03-29T11:02:33;35.53;;;5.03;;
36241;SDS011;22283;42.748;12.732;2024-03-29T11:07:42;41.92;;;5.65;;
36241;SDS011;22283;42.748;12.732;2024-03-29T11:12:45;32.00;;;4.55;;
36241;SDS011;22283;42.748;12.732;2024-03-29T11:18:00;51.35;;;6.45;;
36241;SDS011;22283;42.748;12.732;2024-03-29T11:23:02;50.65;;;5.43;;
36241;SDS011;22283;42.748;12.732;2024-03-29T11:28:06;43.92;;;6.13;;
36241;SDS011;22283;42.748;12.732;2024-03-29T11:33:24;58.20;;;7.18;;
36241;SDS011;22283;42.748;12.732;2024-03-29T11:38:49;53.05;;;6.65;;
36241;SDS011;22283;42.748;12.732;2024-03-29T11:43:51;46.63;;;6.20;;
36241;SDS011;22283;42.748;12.732;2024-03-29T11:48:51;48.08;;;6.45;;
36241;SDS011;22283;42.748;12.732;2024-03-29T11:53:52;52.53;;;7.68;;
36241;SDS011;22283;42.748;12.732;2024-03-29T11:58:53;53.22;;;6.43;;
36241;SDS011;22283;42.748;12.732;2024-03-29T12:03:59;61.33;;;7.72;;
36241;SDS011;22283;42.748;12.732;2024-03-29T12:09:00;55.53;;;9.52;;
36241;SDS011;22283;42.748;12.732;2024-03-29T12:14:01;60.50;;;9.50;;
36241;SDS011;22283;42.748;12.732;2024-03-29T12:19:02;64.60;;;9.65;;
36241;SDS011;22283;42.748;12.732;2024-03-29T12:24:03;67.22;;;9.35;;
36241;SDS011;22283;42.748;12.732;2024-03-29T12:29:03;62.63;;;10.50;;
36241;SDS011;22283;42.748;12.732;2024-03-29T12:34:04;74.78;;;10.07;;
36241;SDS011;22283;42.748;12.732;2024-03-29T12:39:07;71.38;;;10.45;;
36241;SDS011;22283;42.748;12.732;2024-03-29T12:44:07;81.50;;;10.63;;
36241;SDS011;22283;42.748;12.732;2024-03-29T12:49:10;81.88;;;11.70;;
36241;SDS011;22283;42.748;12.732;2024-03-29T12:54:11;91.65;;;11.55;;
36241;SDS011;22283;42.748;12.732;2024-03-29T12:59:12;103.35;;;13.23;;
36241;SDS011;22283;42.748;12.732;2024-03-29T13:04:15;90.68;;;11.68;;
36241;SDS011;22283;42.748;12.732;2024-03-29T13:09:15;90.68;;;12.38;;
36241;SDS011;22283;42.748;12.732;2024-03-29T13:14:16;96.90;;;13.52;;
36241;SDS011;22283;42.748;12.732;2024-03-29T13:19:16;109.00;;;15.85;;
36241;SDS011;22283;42.748;12.732;2024-03-29T13:24:17;120.60;;;15.95;;
36241;SDS011;22283;42.748;12.732;2024-03-29T13:29:17;132.52;;;16.38;;
36241;SDS011;22283;42.748;12.732;2024-03-29T13:34:18;126.72;;;15.60;;
36241;SDS011;22283;42.748;12.732;2024-03-29T13:39:18;100.38;;;15.43;;
36241;SDS011;22283;42.748;12.732;2024-03-29T13:44:19;118.78;;;15.60;;
36241;SDS011;22283;42.748;12.732;2024-03-29T13:54:20;136.88;;;16.50;;
36241;SDS011;22283;42.748;12.732;2024-03-29T14:04:22;123.97;;;15.77;;
36241;SDS011;22283;42.748;12.732;2024-03-29T14:14:23;110.00;;;18.40;;
36241;SDS011;22283;42.748;12.732;2024-03-29T14:24:24;143.65;;;16.27;;
36241;SDS011;22283;42.748;12.732;2024-03-29T14:34:26;113.63;;;16.27;;
36241;SDS011;22283;42.748;12.732;2024-03-29T14:44:28;96.40;;;15.70;;
36241;SDS011;22283;42.748;12.732;2024-03-29T14:54:29;150.10;;;18.93;;
36241;SDS011;22283;42.748;12.732;2024-03-29T15:04:30;141.32;;;18.80;;
36241;SDS011;22283;42.748;12.732;2024-03-29T15:14:31;148.25;;;18.75;;
36241;SDS011;22283;42.748;12.732;2024-03-29T15:19:32;121.20;;;15.43;;
36241;SDS011;22283;42.748;12.732;2024-03-29T15:24:33;122.18;;;15.88;;
36241;SDS011;22283;42.748;12.732;2024-03-29T15:34:34;132.30;;;18.00;;
36241;SDS011;22283;42.748;12.732;2024-03-29T15:39:35;108.82;;;16.30;;
36241;SDS011;22283;42.748;12.732;2024-03-29T15:44:36;119.05;;;17.95;;
36241;SDS011;22283;42.748;12.732;2024-03-29T15:49:36;134.40;;;16.40;;
36241;SDS011;22283;42.748;12.732;2024-03-29T15:54:37;109.20;;;12.80;;
36241;SDS011;22283;42.748;12.732;2024-03-29T15:59:37;113.03;;;17.73;;
36241;SDS011;22283;42.748;12.732;2024-03-29T16:04:38;101.32;;;13.70;;
36241;SDS011;22283;42.748;12.732;2024-03-29T16:09:39;101.70;;;11.70;;
36241;SDS011;22283;42.748;12.732;2024-03-29T16:14:39;110.18;;;15.63;;
36241;SDS011;22283;42.748;12.732;2024-03-29T16:19:39;116.90;;;15.80;;
36241;SDS011;22283;42.748;12.732;2024-03-29T16:24:40;124.13;;;16.03;;
36241;SDS011;22283;42.748;12.732;2024-03-29T16:29:41;98.32;;;16.83;;
36241;SDS011;22283;42.748;12.732;2024-03-29T16:34:42;119.13;;;13.63;;
36241;SDS011;22283;42.748;12.732;2024-03-29T16:39:45;97.57;;;12.52;;
36241;SDS011;22283;42.748;12.732;2024-03-29T16:44:46;97.88;;;12.77;;
36241;SDS011;22283;42.748;12.732;2024-03-29T16:49:46;91.23;;;12.37;;
36241;SDS011;22283;42.748;12.732;2024-03-29T16:54:47;122.60;;;33.60;;
36241;SDS011;22283;42.748;12.732;2024-03-29T16:59:48;84.90;;;14.27;;
36241;SDS011;22283;42.748;12.732;2024-03-29T17:04:49;107.72;;;15.85;;
36241;SDS011;22283;42.748;12.732;2024-03-29T17:09:51;102.25;;;19.35;;
36241;SDS011;22283;42.748;12.732;2024-03-29T17:14:51;100.70;;;14.40;;
36241;SDS011;22283;42.748;12.732;2024-03-29T17:19:52;104.85;;;13.20;;
36241;SDS011;22283;42.748;12.732;2024-03-29T17:24:52;96.72;;;12.68;;
36241;SDS011;22283;42.748;12.732;2024-03-29T17:34:54;103.47;;;13.80;;
36241;SDS011;22283;42.748;12.732;2024-03-29T17:39:55;87.47;;;11.97;;
36241;SDS011;22283;42.748;12.732;2024-03-29T17:44:55;116.23;;;19.30;;
36241;SDS011;22283;42.748;12.732;2024-03-29T17:49:56;105.10;;;25.17;;
36241;SDS011;22283;42.748;12.732;2024-03-29T17:54:56;99.43;;;16.47;;
36241;SDS011;22283;42.748;12.732;2024-03-29T17:59:57;82.18;;;14.65;;
36241;SDS011;22283;42.748;12.732;2024-03-29T18:04:59;99.18;;;12.88;;
36241;SDS011;22283;42.748;12.732;2024-03-29T18:10:00;97.57;;;15.93;;
36241;SDS011;22283;42.748;12.732;2024-03-29T18:15:00;102.97;;;15.80;;
36241;SDS011;22283;42.748;12.732;2024-03-29T18:20:01;93.80;;;17.37;;
36241;SDS011;22283;42.748;12.732;2024-03-29T18:25:01;97.47;;;13.10;;
36241;SDS011;22283;42.748;12.732;2024-03-29T18:30:02;106.25;;;13.60;;
36241;SDS011;22283;42.748;12.732;2024-03-29T18:35:03;84.20;;;12.98;;
36241;SDS011;22283;42.748;12.732;2024-03-29T18:40:04;75.75;;;10.57;;
36241;SDS011;22283;42.748;12.732;2024-03-29T18:45:05;106.07;;;11.02;;
36241;SDS011;22283;42.748;12.732;2024-03-29T18:50:06;94.95;;;13.15;;
36241;SDS011;22283;42.748;12.732;2024-03-29T18:55:07;98.07;;;12.38;;
36241;SDS011;22283;42.748;12.732;2024-03-29T19:00:08;104.00;;;14.25;;
36241;SDS011;22283;42.748;12.732;2024-03-29T19:05:09;93.20;;;11.88;;
36241;SDS011;22283;42.748;12.732;2024-03-29T19:10:10;96.70;;;11.20;;
36241;SDS011;22283;42.748;12.732;2024-03-29T19:15:10;89.90;;;12.97;;
36241;SDS011;22283;42.748;12.732;2024-03-29T19:20:11;109.37;;;15.93;;
36241;SDS011;22283;42.748;12.732;2024-03-29T19:25:11;131.93;;;15.43;;
36241;SDS011;22283;42.748;12.732;2024-03-29T19:30:12;96.67;;;14.27;;
36241;SDS011;22283;42.748;12.732;2024-03-29T19:35:13;133.32;;;17.02;;
36241;SDS011;22283;42.748;12.732;2024-03-29T19:40:13;127.17;;;17.40;;
36241;SDS011;22283;42.748;12.732;2024-03-29T19:45:14;138.30;;;18.63;;
36241;SDS011;22283;42.748;12.732;2024-03-29T19:50:14;117.30;;;13.80;;
36241;SDS011;22283;42.748;12.732;2024-03-29T19:55:15;124.40;;;14.07;;
36241;SDS011;22283;42.748;12.732;2024-03-29T20:00:19;124.60;;;15.25;;
36241;SDS011;22283;42.748;12.732;2024-03-29T20:05:20;138.10;;;15.77;;
36241;SDS011;22283;42.748;12.732;2024-03-29T20:10:21;145.17;;;16.83;;
36241;SDS011;22283;42.748;12.732;2024-03-29T20:15:21;130.90;;;16.07;;
36241;SDS011;22283;42.748;12.732;2024-03-29T20:20:22;146.67;;;18.80;;
36241;SDS011;22283;42.748;12.732;2024-03-29T20:25:22;136.27;;;14.53;;
36241;SDS011;22283;42.748;12.732;2024-03-29T20:30:23;146.83;;;17.47;;
36241;SDS011;22283;42.748;12.732;2024-03-29T20:35:24;155.77;;;19.63;;
36241;SDS011;22283;42.748;12.732;2024-03-29T20:40:25;133.53;;;18.10;;
36241;SDS011;22283;42.748;12.732;2024-03-29T20:45:25;145.13;;;18.80;;
36241;SDS011;22283;42.748;12.732;2024-03-29T20:55:28;151.65;;;16.25;;
36241;SDS011;22283;42.748;12.732;2024-03-29T21:00:29;146.43;;;17.63;;
36241;SDS011;22283;42.748;12.732;2024-03-29T21:05:30;145.67;;;18.63;;
36241;SDS011;22283;42.748;12.732;2024-03-29T21:10:35;143.90;;;20.70;;
36241;SDS011;22283;42.748;12.732;2024-03-29T21:15:36;146.00;;;17.75;;
36241;SDS011;22283;42.748;12.732;2024-03-29T21:20:36;133.40;;;20.97;;
36241;SDS011;22283;42.748;12.732;2024-03-29T21:25:37;170.13;;;21.50;;
36241;SDS011;22283;42.748;12.732;2024-03-29T21:30:37;136.37;;;17.87;;
36241;SDS011;22283;42.748;12.732;2024-03-29T21:35:39;147.50;;;18.40;;
36241;SDS011;22283;42.748;12.732;2024-03-29T21:40:40;141.60;;;19.43;;
36241;SDS011;22283;42.748;12.732;2024-03-29T21:45:40;148.40;;;20.13;;
36241;SDS011;22283;42.748;12.732;2024-03-29T21:50:40;132.03;;;20.90;;
36241;SDS011;22283;42.748;12.732;2024-03-29T21:55:41;148.73;;;22.37;;
36241;SDS011;22283;42.748;12.732;2024-03-29T22:00:43;140.88;;;20.05;;
36241;SDS011;22283;42.748;12.732;2024-03-29T22:05:43;173.20;;;24.93;;
36241;SDS011;22283;42.748;12.732;2024-03-29T22:10:44;159.03;;;23.53;;
36241;SDS011;22283;42.748;12.732;2024-03-29T22:15:44;143.60;;;22.87;;
36241;SDS011;22283;42.748;12.732;2024-03-29T22:20:45;127.77;;;19.23;;
36241;SDS011;22283;42.748;12.732;2024-03-29T22:25:45;164.97;;;24.03;;
36241;SDS011;22283;42.748;12.732;2024-03-29T22:30:48;139.35;;;18.90;;
36241;SDS011;22283;42.748;12.732;2024-03-29T22:35:49;137.10;;;19.07;;
36241;SDS011;22283;42.748;12.732;2024-03-29T22:40:49;145.07;;;17.37;;
36241;SDS011;22283;42.748;12.732;2024-03-29T22:45:50;164.90;;;19.87;;
36241;SDS011;22283;42.748;12.732;2024-03-29T22:50:52;160.70;;;26.23;;
36241;SDS011;22283;42.748;12.732;2024-03-29T22:55:53;160.05;;;19.75;;
36241;SDS011;22283;42.748;12.732;2024-03-29T23:00:54;154.60;;;20.40;;
36241;SDS011;22283;42.748;12.732;2024-03-29T23:10:56;135.43;;;18.38;;
36241;SDS011;22283;42.748;12.732;2024-03-29T23:15:57;153.57;;;22.07;;
36241;SDS011;22283;42.748;12.732;2024-03-29T23:20:58;147.05;;;18.35;;
36241;SDS011;22283;42.748;12.732;2024-03-29T23:25:58;155.57;;;20.37;;
36241;SDS011;22283;42.748;12.732;2024-03-29T23:31:02;133.77;;;18.83;;
36241;SDS011;22283;42.748;12.732;2024-03-29T23:36:04;147.15;;;18.77;;
36241;SDS011;22283;42.748;12.732;2024-03-29T23:41:04;141.87;;;22.20;;
36241;SDS011;22283;42.748;12.732;2024-03-29T23:46:05;142.17;;;21.67;;
36241;SDS011;22283;42.748;12.732;2024-03-29T23:51:06;146.35;;;20.27;;
36241;SDS011;22283;42.748;12.732;2024-03-29T23:56:07;172.93;;;20.47;;
